Time;durP1;ratioP1;P1;durP2;ratioP2;P2;SDS_P1;SDS_P2;PMS_P1;PMS_P2;Temp;Humidity;BMP_temperature;BMP_pressure;BME280_temperature;BME280_humidity;BME280_pressure;Samples;Min_cycle;Max_cycle;Signal;HPM_P1;HPM_P2
2023/06/25 00:00:10;;;;;;;6.13;4.57;;;;;;;20.15;74.34;98540.84;4168889;28;20651;-82
2023/06/25 00:02:22;;;;;;;5.77;4.50;;;;;;;20.10;74.93;98548.41;4173738;28;20625;-82
2023/06/25 00:04:25;;;;;;;4.80;3.97;;;;;;;20.06;75.28;98539.13;4172772;28;20658;-82
2023/06/25 00:06:30;;;;;;;7.00;4.97;;;;;;;20.04;73.89;98538.41;4172821;28;20657;-83
2023/06/25 00:08:33;;;;;;;4.63;4.13;;;;;;;20.01;74.19;98542.22;4155720;28;20619;-82
2023/06/25 00:10:37;;;;;;;5.27;4.27;;;;;;;19.94;74.25;98541.16;4170126;28;20627;-82
2023/06/25 00:12:40;;;;;;;5.50;4.30;;;;;;;19.89;75.00;98545.22;4169199;28;20692;-82
2023/06/25 00:14:43;;;;;;;5.03;4.03;;;;;;;19.83;75.64;98540.53;4155794;28;20656;-82
2023/06/25 00:16:47;;;;;;;5.80;4.77;;;;;;;19.83;74.02;98542.31;4175315;28;20641;-82
2023/06/25 00:18:50;;;;;;;5.13;4.13;;;;;;;19.79;74.86;98538.34;4174725;28;20751;-82
2023/06/25 00:20:53;;;;;;;5.50;4.73;;;;;;;19.77;76.42;98534.97;4169897;28;20633;-82
2023/06/25 00:22:59;;;;;;;5.20;4.70;;;;;;;19.71;76.29;98539.09;4171384;28;20629;-82
2023/06/25 00:25:09;;;;;;;7.20;4.77;;;;;;;19.65;75.34;98536.19;4168264;28;21365;-82
2023/06/25 00:27:13;;;;;;;5.90;4.53;;;;;;;19.61;76.42;98535.66;4173639;28;20722;-82
2023/06/25 00:29:16;;;;;;;6.50;4.57;;;;;;;19.55;75.58;98536.25;4173915;28;20625;-82
2023/06/25 00:31:19;;;;;;;4.83;4.17;;;;;;;19.52;75.74;98533.09;4169138;28;20715;-83
2023/06/25 00:33:22;;;;;;;6.27;5.60;;;;;;;19.48;77.18;98531.69;4165397;28;20642;-83
2023/06/25 00:35:27;;;;;;;5.90;4.73;;;;;;;19.45;77.11;98529.34;4157171;28;20639;-82
2023/06/25 00:37:34;;;;;;;5.57;4.73;;;;;;;19.42;75.78;98530.50;4170871;28;20630;-82
2023/06/25 00:39:39;;;;;;;5.30;4.33;;;;;;;19.42;76.70;98530.50;4155760;28;20660;-82
2023/06/25 00:41:42;;;;;;;5.17;4.40;;;;;;;19.40;76.78;98529.78;4170469;28;20701;-82
2023/06/25 00:43:45;;;;;;;6.77;4.63;;;;;;;19.41;75.64;98533.28;4155895;28;20637;-82
2023/06/25 00:45:48;;;;;;;6.30;4.60;;;;;;;19.36;76.98;98524.13;4158220;28;20697;-83
2023/06/25 00:47:51;;;;;;;6.00;5.07;;;;;;;19.32;77.10;98533.31;4171895;28;20688;-83
2023/06/25 00:49:54;;;;;;;5.30;4.43;;;;;;;19.34;76.58;98531.38;4154030;28;21236;-83
2023/06/25 00:51:58;;;;;;;4.90;4.10;;;;;;;19.32;76.88;98531.53;4171502;28;21030;-82
2023/06/25 00:54:05;;;;;;;4.70;4.03;;;;;;;19.30;77.74;98524.72;4159058;28;20673;-82
2023/06/25 00:56:11;;;;;;;5.70;5.03;;;;;;;19.27;77.38;98530.31;4175762;28;21246;-82
2023/06/25 00:58:14;;;;;;;6.53;5.20;;;;;;;19.24;78.09;98531.41;4169161;28;20745;-82
2023/06/25 01:00:18;;;;;;;5.47;4.23;;;;;;;19.21;77.63;98526.41;4172355;28;20663;-83
2023/06/25 01:02:24;;;;;;;7.13;5.10;;;;;;;19.20;77.16;98524.78;4169562;28;20637;-82
2023/06/25 01:04:33;;;;;;;5.50;4.40;;;;;;;19.17;77.93;98526.84;4156797;28;21272;-83
2023/06/25 01:06:40;;;;;;;6.67;5.03;;;;;;;19.12;77.04;98524.66;4169279;28;20666;-82
2023/06/25 01:08:49;;;;;;;5.43;4.60;;;;;;;19.09;77.24;98522.34;4154360;28;20633;-82
2023/06/25 01:10:53;;;;;;;6.50;5.10;;;;;;;19.07;77.03;98518.16;4150257;28;21049;-82
2023/06/25 01:12:58;;;;;;;7.37;4.60;;;;;;;19.05;77.32;98517.47;4148442;28;20633;-83
2023/06/25 01:15:03;;;;;;;5.87;4.73;;;;;;;19.01;78.07;98516.06;4171188;28;20755;-83
2023/06/25 01:17:06;;;;;;;5.77;4.97;;;;;;;18.97;77.97;98512.03;4164775;28;20673;-83
2023/06/25 01:19:10;;;;;;;6.67;4.97;;;;;;;18.91;78.21;98515.25;4172690;28;21207;-82
2023/06/25 01:21:14;;;;;;;6.93;5.27;;;;;;;18.90;77.79;98510.97;4174905;28;20659;-82
2023/06/25 01:23:21;;;;;;;7.10;4.37;;;;;;;18.88;77.82;98512.91;4169841;28;20789;-83
2023/06/25 01:25:25;;;;;;;6.10;5.20;;;;;;;18.85;78.52;98507.91;4159002;28;20669;-83
2023/06/25 01:27:29;;;;;;;6.00;4.53;;;;;;;18.84;78.56;98510.69;4165303;28;20645;-84
2023/06/25 01:29:33;;;;;;;6.20;4.60;;;;;;;18.79;77.89;98511.13;4156186;28;20632;-83
2023/06/25 01:31:40;;;;;;;6.10;4.57;;;;;;;18.77;78.35;98509.63;4156674;28;20706;-83
2023/06/25 01:33:44;;;;;;;7.93;5.67;;;;;;;18.74;78.32;98500.16;4187398;28;21033;-83
2023/06/25 01:35:47;;;;;;;5.37;4.70;;;;;;;18.69;79.13;98509.53;4170605;28;20648;-83
2023/06/25 01:37:51;;;;;;;7.50;5.00;;;;;;;18.64;79.16;98504.69;4166580;28;20644;-83
2023/06/25 01:39:56;;;;;;;5.80;4.60;;;;;;;18.64;79.03;98509.09;4150574;28;20650;-83
2023/06/25 01:42:02;;;;;;;5.17;4.53;;;;;;;18.61;79.51;98507.59;4152171;28;21224;-83
2023/06/25 01:44:05;;;;;;;7.77;5.50;;;;;;;18.55;79.87;98508.19;4170104;28;21332;-83
2023/06/25 01:46:09;;;;;;;5.90;4.83;;;;;;;18.55;79.69;98510.81;4168862;28;20756;-83
2023/06/25 01:48:13;;;;;;;6.83;5.10;;;;;;;18.51;79.34;98498.03;4150764;28;20647;-83
2023/06/25 01:50:17;;;;;;;7.77;5.30;;;;;;;18.46;80.28;98498.47;4158746;28;20633;-83
2023/06/25 01:52:21;;;;;;;5.73;5.00;;;;;;;18.45;80.15;98496.78;4157459;28;20628;-83
2023/06/25 01:54:25;;;;;;;5.47;4.73;;;;;;;18.45;79.91;98501.25;4157544;28;20669;-83
2023/06/25 01:56:30;;;;;;;5.27;4.70;;;;;;;18.44;79.85;98495.13;4172183;28;21174;-83
2023/06/25 01:58:34;;;;;;;6.27;5.20;;;;;;;18.41;80.03;98498.03;4166952;28;20699;-83
2023/06/25 02:00:37;;;;;;;7.20;5.33;;;;;;;18.39;80.43;98498.31;4156083;28;20659;-83
2023/06/25 02:02:41;;;;;;;7.03;6.40;;;;;;;18.37;80.42;98500.28;4170714;28;20644;-83
2023/06/25 02:04:45;;;;;;;6.30;4.70;;;;;;;18.34;80.35;98490.81;4174438;28;20700;-83
2023/06/25 02:06:48;;;;;;;6.90;5.70;;;;;;;18.30;80.21;98491.28;4152916;28;20724;-83
2023/06/25 02:08:53;;;;;;;6.23;5.03;;;;;;;18.28;80.27;98485.28;4171787;28;20655;-83
2023/06/25 02:10:56;;;;;;;6.83;4.90;;;;;;;18.23;81.40;98476.97;4173044;28;20625;-83
2023/06/25 02:13:01;;;;;;;5.17;4.50;;;;;;;18.20;81.05;98485.19;4158406;28;21017;-83
2023/06/25 02:15:07;;;;;;;6.00;4.80;;;;;;;18.15;81.46;98475.03;4153569;28;20646;-83
2023/06/25 02:17:11;;;;;;;6.20;4.93;;;;;;;18.14;80.80;98478.63;4169503;28;20637;-83
2023/06/25 02:19:15;;;;;;;6.20;5.27;;;;;;;18.13;80.88;98471.72;4161354;28;20736;-83
2023/06/25 02:21:19;;;;;;;6.80;5.50;;;;;;;18.13;81.10;98481.41;4172361;28;21065;-83
2023/06/25 02:23:24;;;;;;;6.30;4.50;;;;;;;18.11;80.61;98473.59;4154390;28;20664;-83
2023/06/25 02:25:28;;;;;;;6.73;4.90;;;;;;;18.12;80.79;98482.38;4167593;28;20632;-83
2023/06/25 02:27:32;;;;;;;7.60;5.10;;;;;;;18.11;80.92;98478.06;4159514;28;20695;-83
2023/06/25 02:29:37;;;;;;;5.73;4.80;;;;;;;18.04;81.76;98474.31;4172094;28;20629;-83
2023/06/25 02:31:41;;;;;;;6.13;5.03;;;;;;;18.01;81.07;98470.16;4173456;28;20992;-83
2023/06/25 02:33:45;;;;;;;7.07;4.80;;;;;;;17.97;81.32;98470.59;4158937;28;20768;-83
2023/06/25 02:35:49;;;;;;;6.47;5.13;;;;;;;17.95;81.13;98472.50;4172424;28;20625;-83
2023/06/25 02:37:52;;;;;;;6.30;4.97;;;;;;;17.94;82.08;98471.69;4170825;28;20639;-83
2023/06/25 02:39:56;;;;;;;5.93;4.70;;;;;;;17.90;82.00;98468.66;4172096;28;20750;-83
2023/06/25 02:41:59;;;;;;;5.67;4.70;;;;;;;17.86;82.40;98467.25;4163266;28;20649;-83
2023/06/25 02:44:03;;;;;;;5.80;5.00;;;;;;;17.84;82.27;98461.28;4151283;28;20636;-83
2023/06/25 02:46:08;;;;;;;6.40;4.97;;;;;;;17.83;81.55;98465.75;4174829;28;21305;-83
2023/06/25 02:48:12;;;;;;;11.33;5.20;;;;;;;17.81;82.21;98459.75;4156388;28;20684;-83
2023/06/25 02:50:19;;;;;;;6.67;5.27;;;;;;;17.81;81.42;98464.22;4173239;28;20651;-83
2023/06/25 02:52:24;;;;;;;6.20;5.30;;;;;;;17.80;81.84;98459.91;4172958;28;21257;-83
2023/06/25 02:54:28;;;;;;;6.57;5.27;;;;;;;17.78;82.15;98462.69;4173699;28;20640;-83
2023/06/25 02:56:32;;;;;;;6.17;5.27;;;;;;;17.74;82.58;98463.94;4172727;28;20739;-83
2023/06/25 02:58:35;;;;;;;7.40;5.00;;;;;;;17.74;81.95;98461.31;4159098;28;20679;-83
2023/06/25 03:00:39;;;;;;;6.27;5.27;;;;;;;17.75;81.77;98465.59;4171891;28;20725;-83
2023/06/25 03:02:44;;;;;;;6.40;5.03;;;;;;;17.70;82.77;98467.00;4173227;28;20669;-83
2023/06/25 03:04:48;;;;;;;6.23;5.00;;;;;;;17.67;82.46;98465.47;4172780;28;20731;-83
2023/06/25 03:06:52;;;;;;;6.67;5.00;;;;;;;17.62;81.59;98461.56;4175018;28;20661;-83
2023/06/25 03:08:55;;;;;;;5.53;4.93;;;;;;;17.60;82.83;98464.34;4171309;28;20691;-83
2023/06/25 03:10:58;;;;;;;6.60;5.27;;;;;;;17.58;82.28;98462.84;4157437;28;20632;-83
2023/06/25 03:13:02;;;;;;;5.90;4.70;;;;;;;17.53;83.59;98462.44;4152030;28;20691;-83
2023/06/25 03:15:06;;;;;;;5.60;4.67;;;;;;;17.52;82.11;98460.75;4174810;28;20625;-83
2023/06/25 03:17:10;;;;;;;6.23;5.50;;;;;;;17.52;82.85;98463.38;4155850;28;20647;-83
2023/06/25 03:19:15;;;;;;;6.43;5.27;;;;;;;17.56;83.06;98459.47;4157102;28;21066;-83
2023/06/25 03:21:19;;;;;;;6.23;4.97;;;;;;;17.53;81.91;98450.06;4170947;28;20653;-83
2023/06/25 03:23:22;;;;;;;5.00;4.50;;;;;;;17.51;83.51;98448.53;4176217;28;20644;-83
2023/06/25 03:25:26;;;;;;;5.83;4.97;;;;;;;17.52;82.08;98448.38;4154047;28;20660;-83
2023/06/25 03:27:44;;;;;;;6.77;5.50;;;;;;;17.49;83.07;98453.09;4153634;28;20648;-83
2023/06/25 03:29:47;;;;;;;7.63;5.53;;;;;;;17.50;82.23;98449.50;4156597;28;20628;-83
2023/06/25 03:31:50;;;;;;;7.70;5.23;;;;;;;17.51;82.99;98446.75;4159351;28;20728;-83
2023/06/25 03:33:57;;;;;;;5.50;4.83;;;;;;;17.53;82.46;98447.41;4151793;28;20732;-83
2023/06/25 03:36:01;;;;;;;6.50;5.20;;;;;;;17.55;82.83;98447.28;4175024;28;20630;-83
2023/06/25 03:38:06;;;;;;;7.23;5.90;;;;;;;17.55;81.65;98447.28;4187799;28;20684;-83
2023/06/25 03:40:10;;;;;;;6.30;5.03;;;;;;;17.53;82.43;98438.69;4156565;28;20667;-83
2023/06/25 03:42:14;;;;;;;5.80;4.87;;;;;;;17.54;82.06;98441.16;4155063;28;21078;-83
2023/06/25 03:44:17;;;;;;;6.43;5.00;;;;;;;17.54;81.66;98435.88;4172447;28;20718;-83
2023/06/25 03:46:20;;;;;;;6.40;4.90;;;;;;;17.57;83.01;98447.97;4159460;28;20722;-83
2023/06/25 03:48:25;;;;;;;6.77;5.20;;;;;;;17.57;82.88;98443.50;4151787;28;20619;-83
2023/06/25 03:50:28;;;;;;;5.70;5.10;;;;;;;17.59;83.28;98443.38;4156952;28;20655;-83
2023/06/25 03:52:33;;;;;;;7.50;5.30;;;;;;;17.60;82.61;98445.88;4171250;28;21309;-83
2023/06/25 03:54:37;;;;;;;7.30;5.60;;;;;;;17.62;82.92;98446.59;4172373;28;20737;-83
2023/06/25 03:56:41;;;;;;;5.27;4.70;;;;;;;17.66;82.44;98447.13;4175381;28;20715;-83
2023/06/25 03:58:44;;;;;;;5.63;5.03;;;;;;;17.67;82.85;98444.34;4159205;28;20758;-83
2023/06/25 04:00:47;;;;;;;6.60;5.00;;;;;;;17.69;82.43;98450.31;4168222;28;20671;-83
2023/06/25 04:02:50;;;;;;;7.73;6.00;;;;;;;17.71;81.94;98450.19;4159884;28;20641;-83
2023/06/25 04:04:54;;;;;;;6.10;5.17;;;;;;;17.70;82.21;98454.63;4158408;28;20624;-83
2023/06/25 04:06:57;;;;;;;6.13;5.40;;;;;;;17.71;83.12;98451.03;4172616;28;20669;-83
2023/06/25 04:09:02;;;;;;;6.80;5.30;;;;;;;17.72;82.33;98454.50;4159404;28;20643;-83
2023/06/25 04:11:05;;;;;;;6.90;5.50;;;;;;;17.75;81.38;98448.94;4172236;28;21094;-83
2023/06/25 04:13:08;;;;;;;6.33;5.70;;;;;;;17.76;81.99;98447.97;4156743;28;20636;-83
2023/06/25 04:15:11;;;;;;;6.60;5.50;;;;;;;17.77;82.72;98453.13;4172719;28;20657;-83
2023/06/25 04:17:15;;;;;;;6.13;5.10;;;;;;;17.77;81.27;98449.63;4168365;28;20642;-83
2023/06/25 04:19:18;;;;;;;6.13;5.00;;;;;;;17.80;82.48;98446.69;4171020;28;20636;-83
2023/06/25 04:21:21;;;;;;;6.60;5.20;;;;;;;17.81;82.68;98451.84;4158971;28;20656;-83
2023/06/25 04:23:24;;;;;;;5.30;4.67;;;;;;;17.85;82.86;98458.50;4166128;28;20733;-83
2023/06/25 04:25:30;;;;;;;8.57;5.30;;;;;;;17.89;82.78;98459.91;4173202;28;20746;-83
2023/06/25 04:27:33;;;;;;;6.00;5.00;;;;;;;17.91;82.83;98450.03;4156192;28;20691;-83
2023/06/25 04:29:37;;;;;;;5.63;4.90;;;;;;;17.95;82.07;98459.31;4157867;28;20624;-83
2023/06/25 04:31:40;;;;;;;5.77;4.70;;;;;;;17.97;82.39;98460.84;4151544;28;20670;-83
2023/06/25 04:33:44;;;;;;;6.47;5.50;;;;;;;18.00;81.61;98454.47;4173578;28;20635;-83
2023/06/25 04:35:48;;;;;;;6.83;5.40;;;;;;;18.04;81.39;98455.84;4171147;28;20739;-83
2023/06/25 04:37:51;;;;;;;7.07;5.40;;;;;;;18.09;82.08;98450.97;4156183;28;21221;-83
2023/06/25 04:39:54;;;;;;;6.80;5.80;;;;;;;18.14;82.66;98451.41;4154611;28;20646;-83
2023/06/25 04:41:59;;;;;;;7.20;5.33;;;;;;;18.18;81.48;98453.63;4169127;28;20655;-83
2023/06/25 04:44:02;;;;;;;6.40;5.23;;;;;;;18.19;80.91;98446.53;4171578;28;20671;-83
2023/06/25 04:46:06;;;;;;;6.40;5.20;;;;;;;18.21;80.45;98447.25;4170186;28;20625;-83
2023/06/25 04:48:09;;;;;;;8.63;5.83;;;;;;;18.24;80.78;98452.25;4182868;28;21286;-83
2023/06/25 04:50:13;;;;;;;6.90;5.97;;;;;;;18.28;80.50;98451.81;4171841;28;20633;-83
2023/06/25 04:52:19;;;;;;;6.73;5.53;;;;;;;18.32;80.59;98449.69;4175113;28;20629;-83
2023/06/25 04:54:22;;;;;;;6.97;5.87;;;;;;;18.35;81.31;98454.69;4167156;28;20720;-83
2023/06/25 04:56:25;;;;;;;7.90;6.80;;;;;;;18.40;81.10;98455.09;4167489;28;21237;-83
2023/06/25 04:58:30;;;;;;;8.13;6.57;;;;;;;18.45;81.33;98457.16;4151005;28;20745;-83
2023/06/25 05:00:33;;;;;;;7.47;5.57;;;;;;;18.51;80.83;98456.59;4165609;28;21433;-83
2023/06/25 05:02:36;;;;;;;6.90;6.10;;;;;;;18.54;80.43;98453.66;4159305;28;20692;-83
2023/06/25 05:04:39;;;;;;;8.60;6.30;;;;;;;18.60;80.67;98463.66;4171041;28;20648;-83
2023/06/25 05:06:42;;;;;;;7.20;5.50;;;;;;;18.67;80.23;98458.59;4155669;28;21230;-83
2023/06/25 05:08:45;;;;;;;7.20;6.20;;;;;;;18.68;79.03;98455.81;4169542;28;20629;-83
2023/06/25 05:10:49;;;;;;;7.00;6.00;;;;;;;18.73;79.90;98458.03;4170687;28;21031;-83
2023/06/25 05:12:52;;;;;;;6.77;5.77;;;;;;;18.79;80.72;98460.91;4173876;28;21063;-83
2023/06/25 05:14:56;;;;;;;8.13;6.00;;;;;;;18.88;80.31;98464.50;4174169;28;21235;-83
2023/06/25 05:16:59;;;;;;;7.87;6.27;;;;;;;18.97;79.51;98459.16;4154404;28;20715;-83
2023/06/25 05:19:02;;;;;;;7.60;6.40;;;;;;;19.04;79.46;98458.44;4173729;28;21207;-83
2023/06/25 05:21:05;;;;;;;7.80;5.80;;;;;;;19.08;79.32;98456.34;4167797;28;20635;-83
2023/06/25 05:23:10;;;;;;;6.43;5.60;;;;;;;19.16;79.28;98457.25;4176636;28;20758;-83
2023/06/25 05:25:13;;;;;;;7.83;5.93;;;;;;;19.25;80.25;98464.31;4172186;28;20727;-83
2023/06/25 05:27:16;;;;;;;7.83;6.07;;;;;;;19.37;80.10;98469.22;4169604;28;20728;-83
2023/06/25 05:29:19;;;;;;;7.37;5.90;;;;;;;19.49;79.45;98467.22;4170957;28;20634;-84
2023/06/25 05:31:24;;;;;;;7.53;5.80;;;;;;;19.63;78.10;98472.81;4170799;28;20633;-82
2023/06/25 05:33:28;;;;;;;6.30;5.70;;;;;;;19.82;78.00;98474.50;4145668;28;20632;-83
2023/06/25 05:35:31;;;;;;;6.87;5.40;;;;;;;19.99;77.48;98477.13;4159079;28;20629;-82
2023/06/25 05:37:34;;;;;;;7.30;5.80;;;;;;;20.21;76.38;98484.59;4145192;28;21235;-82
2023/06/25 05:39:37;;;;;;;6.93;5.83;;;;;;;20.42;75.17;98477.97;4159616;28;20634;-82
2023/06/25 05:41:41;;;;;;;7.60;5.93;;;;;;;20.71;76.14;98481.97;4171296;28;20633;-82
2023/06/25 05:43:44;;;;;;;6.97;5.90;;;;;;;21.06;75.81;98479.97;4157399;28;20677;-82
2023/06/25 05:45:47;;;;;;;6.13;5.27;;;;;;;21.41;74.71;98487.75;4135590;28;20692;-82
2023/06/25 05:47:51;;;;;;;6.43;5.73;;;;;;;21.74;73.80;98492.16;4166972;28;21185;-82
2023/06/25 05:49:55;;;;;;;7.33;5.83;;;;;;;22.08;72.78;98488.34;4168561;28;20664;-82
2023/06/25 05:51:58;;;;;;;7.57;6.10;;;;;;;22.34;71.03;98496.03;4154414;28;20642;-82
2023/06/25 05:54:01;;;;;;;7.27;5.53;;;;;;;22.59;70.55;98496.81;4152205;28;20633;-82
2023/06/25 05:56:05;;;;;;;7.00;5.67;;;;;;;22.85;70.16;98495.59;4173286;28;20671;-82
2023/06/25 05:58:09;;;;;;;6.17;5.53;;;;;;;23.12;69.68;98498.69;4166680;28;21127;-82
2023/06/25 06:00:12;;;;;;;6.80;5.60;;;;;;;23.40;68.62;98490.06;4155692;28;21140;-82
2023/06/25 06:02:15;;;;;;;6.27;5.63;;;;;;;23.69;69.04;98495.59;4170277;28;20644;-81
2023/06/25 06:04:20;;;;;;;6.40;5.70;;;;;;;23.92;68.03;98485.75;4153610;28;20625;-82
2023/06/25 06:06:24;;;;;;;6.53;5.80;;;;;;;24.11;67.35;98488.78;4165733;28;20659;-82
2023/06/25 06:08:28;;;;;;;8.27;5.67;;;;;;;24.35;66.58;98496.63;4173280;28;20657;-82
2023/06/25 06:10:31;;;;;;;6.43;5.63;;;;;;;24.62;65.75;98496.84;4159065;28;20623;-82
2023/06/25 06:12:34;;;;;;;6.40;5.40;;;;;;;24.86;65.95;98499.28;4154454;28;20670;-84
2023/06/25 06:14:38;;;;;;;5.63;4.87;;;;;;;25.05;65.04;98498.75;4169690;28;21030;-83
2023/06/25 06:16:41;;;;;;;7.77;5.80;;;;;;;25.27;64.61;98496.81;4171081;28;20642;-83
2023/06/25 06:18:44;;;;;;;5.50;4.60;;;;;;;25.51;64.34;98493.81;4152926;28;20779;-83
2023/06/25 06:20:49;;;;;;;6.63;5.03;;;;;;;25.74;64.08;98494.50;4169054;28;20638;-84
2023/06/25 06:22:53;;;;;;;7.83;5.40;;;;;;;25.98;63.59;98491.47;4169874;28;21050;-85
2023/06/25 06:24:56;;;;;;;6.10;5.07;;;;;;;26.19;63.26;98495.84;4174571;28;20656;-83
2023/06/25 06:26:59;;;;;;;6.80;5.70;;;;;;;26.33;61.80;98494.94;4168633;28;20657;-83
2023/06/25 06:29:03;;;;;;;5.60;4.90;;;;;;;26.56;62.16;98493.69;4170112;28;20672;-83
2023/06/25 06:31:08;;;;;;;5.27;4.77;;;;;;;26.75;61.46;98493.03;4166126;28;20633;-84
2023/06/25 06:33:11;;;;;;;6.37;5.73;;;;;;;26.94;61.08;98495.00;4156759;28;20713;-84
2023/06/25 06:35:14;;;;;;;14.37;7.60;;;;;;;27.16;62.99;98501.97;4173986;28;20639;-83
2023/06/25 06:37:19;;;;;;;6.50;5.47;;;;;;;27.30;64.18;98488.41;4170300;28;20983;-84
2023/06/25 06:39:22;;;;;;;6.47;5.77;;;;;;;27.49;62.22;98492.22;4171890;28;20633;-84
2023/06/25 06:41:25;;;;;;;7.63;5.90;;;;;;;27.67;65.03;98493.34;4170056;28;20625;-84
2023/06/25 06:43:28;;;;;;;6.37;5.37;;;;;;;27.75;61.90;98499.34;4168848;28;20649;-83
2023/06/25 06:45:31;;;;;;;7.57;5.63;;;;;;;27.91;61.93;98492.81;4172563;28;20632;-83
2023/06/25 06:47:35;;;;;;;6.00;5.27;;;;;;;28.00;58.77;98487.88;4147802;28;20638;-83
2023/06/25 06:49:38;;;;;;;7.70;5.97;;;;;;;28.16;59.80;98498.25;4173501;28;20629;-83
2023/06/25 06:51:41;;;;;;;6.93;5.77;;;;;;;28.33;57.92;98504.06;4168829;28;20622;-83
2023/06/25 06:53:46;;;;;;;6.60;5.83;;;;;;;28.49;56.90;98494.56;4151492;28;20660;-84
2023/06/25 06:55:49;;;;;;;6.00;5.37;;;;;;;28.61;56.37;98495.59;4174808;28;20663;-83
2023/06/25 06:57:52;;;;;;;6.13;5.20;;;;;;;28.78;55.72;98488.78;4151311;28;20697;-86
2023/06/25 06:59:55;;;;;;;6.53;5.70;;;;;;;28.88;54.22;98499.09;4168289;28;20995;-86
2023/06/25 07:01:58;;;;;;;6.03;5.37;;;;;;;28.80;55.18;98489.38;4168622;28;21245;-85
2023/06/25 07:04:02;;;;;;;6.97;5.67;;;;;;;28.78;55.96;98483.41;4182999;28;21081;-86
2023/06/25 07:06:05;;;;;;;6.50;5.13;;;;;;;28.95;54.44;98484.63;4171111;28;20616;-86
2023/06/25 07:08:08;;;;;;;5.60;4.87;;;;;;;29.04;52.96;98478.78;4170156;28;20646;-86
2023/06/25 07:10:12;;;;;;;6.70;5.10;;;;;;;29.24;54.47;98484.97;4172688;28;20717;-86
2023/06/25 07:12:16;;;;;;;6.80;5.47;;;;;;;29.26;53.81;98472.16;4171274;28;20638;-86
2023/06/25 07:14:19;;;;;;;6.47;5.57;;;;;;;29.39;53.75;98474.78;4175453;28;20635;-86
2023/06/25 07:16:22;;;;;;;7.27;6.13;;;;;;;29.49;52.86;98480.56;4162312;28;21265;-86
2023/06/25 07:18:25;;;;;;;6.60;5.30;;;;;;;29.61;52.92;98476.16;4173528;28;20649;-86
2023/06/25 07:20:30;;;;;;;7.20;6.00;;;;;;;29.63;51.70;98476.75;4174201;28;21117;-85
2023/06/25 07:22:33;;;;;;;6.20;5.20;;;;;;;29.72;51.84;98475.47;4175472;28;20652;-86
2023/06/25 07:24:36;;;;;;;5.90;5.07;;;;;;;29.94;52.06;98474.16;4171109;28;20636;-86
2023/06/25 07:26:40;;;;;;;6.40;5.30;;;;;;;30.11;51.49;98478.78;4168105;28;20620;-86
2023/06/25 07:28:44;;;;;;;7.80;6.37;;;;;;;30.25;51.51;98475.78;4171344;28;20635;-86
2023/06/25 07:30:47;;;;;;;6.13;5.40;;;;;;;30.34;51.05;98484.44;4172825;28;21071;-85
2023/06/25 07:32:50;;;;;;;6.43;5.50;;;;;;;30.32;50.39;98481.94;4176358;28;20733;-85
2023/06/25 07:34:54;;;;;;;6.70;5.60;;;;;;;30.29;49.89;98482.38;4173092;28;20623;-85
2023/06/25 07:36:57;;;;;;;6.70;4.87;;;;;;;30.37;51.56;98474.06;4172797;28;20637;-86
2023/06/25 07:39:05;;;;;;;5.97;4.90;;;;;;;30.38;49.47;98467.63;4168538;28;20640;-85
2023/06/25 07:41:08;;;;;;;6.27;5.03;;;;;;;30.44;49.83;98474.81;4167008;28;21322;-86
2023/06/25 07:43:13;;;;;;;6.23;5.03;;;;;;;30.67;52.56;98483.13;4173886;28;20657;-85
2023/06/25 07:45:16;;;;;;;7.30;6.00;;;;;;;30.88;51.29;98480.88;4171978;28;20638;-86
2023/06/25 07:47:19;;;;;;;6.77;5.60;;;;;;;31.07;51.24;98482.56;4168263;28;20627;-85
2023/06/25 07:49:22;;;;;;;7.07;5.77;;;;;;;31.04;50.51;98478.44;4165830;28;20660;-86
2023/06/25 07:51:26;;;;;;;6.43;5.60;;;;;;;31.21;49.34;98478.66;4176046;28;20679;-86
2023/06/25 07:53:29;;;;;;;7.70;5.83;;;;;;;31.29;48.81;98479.19;4160866;28;20632;-85
2023/06/25 07:55:38;;;;;;;6.90;5.60;;;;;;;31.50;48.14;98474.19;4169002;28;21199;-85
2023/06/25 07:58:01;;;;;;;6.20;4.90;;;;;;;31.53;46.04;98467.53;4172247;28;20718;-85
2023/06/25 08:00:07;;;;;;;6.13;4.93;;;;;;;31.72;46.40;98463.72;4157046;28;20646;-86
2023/06/25 08:02:18;;;;;;;6.13;5.07;;;;;;;31.67;45.13;98463.59;4167270;28;20973;-89
2023/06/25 08:04:21;;;;;;;6.57;5.30;;;;;;;31.72;45.64;98455.63;4167898;28;20652;-85
2023/06/25 08:06:25;;;;;;;6.60;5.23;;;;;;;31.70;44.05;98458.56;4170777;28;20666;-85
2023/06/25 08:08:28;;;;;;;6.60;5.10;;;;;;;31.68;45.80;98457.97;4173524;28;20629;-85
2023/06/25 08:10:31;;;;;;;6.90;5.10;;;;;;;31.85;41.93;98447.38;4160322;28;20633;-85
2023/06/25 08:12:34;;;;;;;6.97;5.47;;;;;;;31.96;44.53;98445.53;4154591;28;20640;-85
2023/06/25 08:14:37;;;;;;;6.73;5.20;;;;;;;32.08;43.58;98451.78;4156148;28;20994;-85
2023/06/25 08:16:42;;;;;;;10.30;5.03;;;;;;;32.16;43.08;98446.09;4169183;28;20727;-85
2023/06/25 08:18:45;;;;;;;5.50;4.10;;;;;;;31.93;40.34;98446.03;4171204;28;21085;-85
2023/06/25 08:20:48;;;;;;;5.80;4.67;;;;;;;31.70;42.52;98442.38;4172739;28;20644;-86
2023/06/25 08:22:51;;;;;;;6.23;4.80;;;;;;;31.74;42.35;98438.16;4170075;28;20632;-86
2023/06/25 08:24:55;;;;;;;5.03;4.00;;;;;;;31.65;41.57;98442.22;4171041;28;20668;-85
2023/06/25 08:26:58;;;;;;;5.07;3.90;;;;;;;31.70;42.27;98431.56;4168353;28;20707;-85
2023/06/25 08:29:01;;;;;;;4.60;3.70;;;;;;;31.76;43.34;98436.06;4168790;28;20625;-85
2023/06/25 08:31:04;;;;;;;5.63;4.50;;;;;;;31.98;44.88;98439.91;4170861;28;20636;-86
2023/06/25 08:33:09;;;;;;;5.17;4.60;;;;;;;32.05;42.39;98446.03;4172489;28;20644;-85
2023/06/25 08:35:12;;;;;;;5.57;4.43;;;;;;;32.15;43.14;98439.03;4174582;28;20678;-84
2023/06/25 08:37:15;;;;;;;4.60;3.97;;;;;;;32.20;43.23;98438.31;4158687;28;20625;-84
2023/06/25 08:39:20;;;;;;;5.67;4.73;;;;;;;32.21;43.26;98443.50;4146219;28;20644;-83
2023/06/25 08:41:26;;;;;;;5.93;4.67;;;;;;;32.08;42.41;98435.59;4144645;28;20693;-83
2023/06/25 08:43:29;;;;;;;5.50;4.60;;;;;;;32.02;44.43;98430.28;4169901;28;20610;-84
2023/06/25 08:45:33;;;;;;;5.93;4.70;;;;;;;32.17;44.74;98430.69;4162300;28;20643;-84
2023/06/25 08:47:39;;;;;;;5.53;4.57;;;;;;;32.31;43.20;98438.34;4152192;28;20683;-84
2023/06/25 08:49:44;;;;;;;5.20;4.20;;;;;;;32.42;42.76;98440.25;4152378;28;21194;-84
2023/06/25 08:51:47;;;;;;;6.23;4.70;;;;;;;32.40;42.79;98436.94;4169182;28;20645;-83
2023/06/25 08:53:50;;;;;;;4.90;4.00;;;;;;;32.29;43.97;98426.94;4170130;28;20675;-84
2023/06/25 08:55:56;;;;;;;4.73;3.90;;;;;;;32.06;43.25;98428.78;4166693;28;20665;-83
2023/06/25 08:57:59;;;;;;;5.00;3.80;;;;;;;31.81;42.97;98428.06;4171183;28;20637;-83
2023/06/25 09:00:02;;;;;;;5.30;4.37;;;;;;;31.59;42.60;98426.09;4150723;28;20650;-83
2023/06/25 09:02:07;;;;;;;4.67;3.90;;;;;;;31.38;43.15;98415.78;4155113;28;20633;-82
2023/06/25 09:04:10;;;;;;;6.00;4.50;;;;;;;31.29;42.92;98416.31;4161162;28;20665;-82
2023/06/25 09:06:16;;;;;;;5.57;4.43;;;;;;;31.20;44.17;98423.91;4166723;28;20910;-82
2023/06/25 09:08:20;;;;;;;6.00;4.30;;;;;;;31.23;43.62;98411.81;4169968;28;20625;-82
2023/06/25 09:10:23;;;;;;;5.50;4.00;;;;;;;31.24;43.43;98414.28;4166748;28;20648;-83
2023/06/25 09:12:27;;;;;;;5.80;4.50;;;;;;;31.24;43.69;98408.09;4168673;28;20790;-82
2023/06/25 09:14:30;;;;;;;6.37;4.27;;;;;;;31.28;43.34;98402.00;4165387;28;20647;-84
2023/06/25 09:16:33;;;;;;;5.17;4.17;;;;;;;31.44;43.96;98414.91;4164927;28;20993;-82
2023/06/25 09:18:37;;;;;;;5.63;4.27;;;;;;;31.55;43.42;98414.97;4161156;28;20676;-83
2023/06/25 09:20:45;;;;;;;5.70;4.40;;;;;;;31.61;44.08;98410.53;4160693;28;21174;-83
2023/06/25 09:22:52;;;;;;;7.63;5.80;;;;;;;31.64;44.66;98410.88;4166712;28;20695;-83
2023/06/25 09:24:55;;;;;;;6.30;4.80;;;;;;;31.62;43.54;98402.19;4160077;28;20756;-83
2023/06/25 09:26:58;;;;;;;5.73;4.33;;;;;;;31.68;43.77;98404.00;4147686;28;20642;-83
2023/06/25 09:29:01;;;;;;;7.03;4.43;;;;;;;31.73;43.41;98397.91;4168388;28;20628;-83
2023/06/25 09:31:04;;;;;;;5.33;4.67;;;;;;;31.84;44.57;98389.81;4154547;28;20634;-83
2023/06/25 09:33:08;;;;;;;5.40;4.00;;;;;;;31.77;42.52;98391.81;4169364;28;20636;-83
2023/06/25 09:35:11;;;;;;;5.23;3.90;;;;;;;31.74;42.75;98389.56;4152796;28;21269;-83
2023/06/25 09:37:15;;;;;;;5.27;4.60;;;;;;;31.91;44.40;98407.56;4153456;28;20729;-82
2023/06/25 09:39:20;;;;;;;5.93;4.17;;;;;;;32.10;44.16;98403.78;4156217;28;20623;-81
2023/06/25 09:41:24;;;;;;;5.63;5.03;;;;;;;31.86;44.71;98390.44;4168347;28;20763;-82
2023/06/25 09:43:29;;;;;;;5.50;4.13;;;;;;;31.73;43.80;98393.31;4164599;28;20628;-79